Beulah, ND (58523)

3:27 PM CDT on May 29, 2015 (GMT -0500)
Mercer County Regional | | Change Station
CLOSE
Current Station
Airport
Location: Hazen,
Elevation: 1814 ft
Nearby Weather Stations
Active Advisory: Frost Advisory

Elev 1814 ft 47.29 °N, 101.58 °W | Updated 12 minutes ago

Mostly Cloudy
Mostly Cloudy
52 °F
Feels Like 52 °F
N
17
Wind Variable Wind from North
Gusts 21 mph

Today
High -- | Low -- °F
--% Chance of Precip.
Yesterday
High -- | Low -- °F
Precip. -- in
5:57 AM 9:32 PM
Waxing Gibbous, 85% visible
Pressure 30.29 in
Visibility 10.0 miles
Clouds Mostly Cloudy 3800 ft
Dew Point 34 °F
Humidity 50%
Rainfall 0.00 in
Snow Depth Not available.
UV 5 out of 12
Pollen 8.50 out of 12
Air Quality Not available.
Flu Activity Sporadic
METAR KHZE 292015Z AUTO 36015G18KT 10SM BKN038 11/01 A3029 RMK AO2

More Conditions Fewer Conditions

Pressure 30.29 in
Visibility 10.0 miles
Clouds Mostly Cloudy 3800 ft
Dew Point 34 °F
Humidity 50%
Rainfall 0.00 in
Snow Depth Not available.
UV 5 out of 12
Pollen 8.50 out of 12
Air Quality Not available.
Flu Activity Sporadic
METAR KHZE 292015Z AUTO 36015G18KT 10SM BKN038 11/01 A3029 RMK AO2

More Conditions Fewer Conditions

10-Day Weather Forecast

Almanac

Astronomy

May. 29, 2015 Rise Set
Actual Time
Civil Twilight
Nautical Twilight
Astronomical Twilight
Moon
Length of Visible Light
Length of Day
Tomorrow will be .
, % of the Moon is Illuminated

Today's Extremes

State Highs State Lows

Community

WunderPhotos

Upload Photos

1,825,331 photos uploaded!

WunderBlogs® & News

Nearby

Air Quality

  Air Quality AQ Index Pollutant
Not available.

Snow Depth

Station Depth Elevation

Earthquake Activity

City Distance Mag. Time & Date
Minimum magnitude displayed is 2.5.

Coastal Water Temperatures

Place Temperature

Stations

Nearby Weather Stations

Station Location Temp. Windchill Dew Point Humidity Wind Precip. Elev Updated Type
                   
Frost Advisory
Statement as of 2:56 PM CDT on May 29, 2015

... Frost advisory in effect from 2 am CDT /1 am MDT/ to 9 am CDT
/8 am MDT/ Saturday...

The National Weather Service in Bismarck has issued a frost
advisory... which is in effect from 2 am CDT /1 am MDT/ to 9 am
CDT /8 am MDT/ Saturday.

* Temperature... lower to middle 30s.

* Impacts... tender outdoor vegetation may be killed if left
unprotected.

Precautionary/preparedness actions...

A frost advisory means that widespread frost is expected.
Sensitive outdoor plants may be killed if left uncovered.


Twh